Estación Meteorológica Peña el Pijo (Robertgarden) [ 08/20/17 13:39:34 CEST ]

Fecha Hora Presion(HPa) Temp (°C) Humedad % Rocio (°C) Viento ( m/s) Direccion Lluvia 1Hora(mm) Lluvia 24H(mm) LLuvia Total(mm)
2017-Jun-30 01:01:43 1007.400 14.9 39 1.0         1427.60
2017-Jun-30 02:01:55 1007.500 12.1 46 0.8         1427.60
2017-Jun-30 03:01:58 1007.300 13.0 48 2.2         1427.60
2017-Jun-30 04:01:50 1007.400 11.4 54 2.4         1427.60
2017-Jun-30 05:01:47 1007.400 12.6 52 3.0         1427.60
2017-Jun-30 06:02:01 1007.600 12.4 55 3.6         1427.60
2017-Jun-30 07:01:54 1008.200 11.4 57 3.1         1427.60
2017-Jun-30 08:01:53 1008.700 12.4 59 4.6         1427.60
2017-Jun-30 09:01:31 1009.300 13.6 55 4.6         1427.60
2017-Jun-30 10:01:46 1009.100 16.1 46 4.4         1427.60
2017-Jun-30 11:08:55 1009.200 - - - - SSW     1427.60
2017-Jun-30 12:01:18 1009.200 20.4 33 3.5 1.2 N     1427.60
2017-Jun-30 13:01:52 1009.500 22.6 29 3.6 2.5 NNW     1427.60
2017-Jun-30 14:03:37 1009.200 23.5 25 2.1         1427.60
2017-Jun-30 15:01:43 1009.200 25.1 23 2.3         1427.60
2017-Jun-30 16:01:35 1009.100 24.2 25 2.7         1427.60
2017-Jun-30 17:01:42 1009.200 24.2 24 2.1         1427.60
2017-Jun-30 18:01:48 1009.400 26.1 22 2.5         1427.60
2017-Jun-30 19:01:44 1009.600 23.9 23 1.3         1427.60
2017-Jun-30 20:01:36 1009.900 22.5 23 0.1 1.4 N     1427.60
2017-Jun-30 21:01:37 1010.400 18.7 27 -0.8         1427.60
2017-Jun-30 22:01:54 1010.700 16.3 35 0.7         1427.60
2017-Jun-30 23:01:51 1011.700 13.8 41 0.7         1427.60

Temperatura Máxima:26°    Temperatura Mínima:
Presión Máxima:1011.700 Hpa    Presión Mínima:1007.300 Hpa


Volver